createdAt,value
2023-02-11T00:00:39.000Z,4128.0
2023-02-11T00:01:38.000Z,4109.0
2023-02-11T00:02:39.000Z,4058.0
2023-02-11T00:03:39.000Z,4093.0
2023-02-11T00:04:38.000Z,4088.0
2023-02-11T00:05:39.000Z,4087.0
2023-02-11T00:06:38.000Z,4004.0
2023-02-11T00:07:38.000Z,3879.0
2023-02-11T00:08:39.000Z,3984.0
2023-02-11T00:09:38.000Z,3966.0
2023-02-11T00:10:39.000Z,3860.0
2023-02-11T00:11:39.000Z,3976.0
2023-02-11T00:12:38.000Z,3939.0
2023-02-11T00:13:39.000Z,3949.0
2023-02-11T00:14:38.000Z,3785.0
2023-02-11T00:15:39.000Z,3803.0
2023-02-11T00:16:39.000Z,3843.0
2023-02-11T00:17:38.000Z,3871.0
2023-02-11T00:18:39.000Z,3693.0
2023-02-11T00:19:39.000Z,3752.0
2023-02-11T00:20:38.000Z,3756.0
2023-02-11T00:21:39.000Z,3810.0
2023-02-11T00:22:38.000Z,3815.0
2023-02-11T00:23:39.000Z,3998.0
2023-02-11T00:24:39.000Z,3924.0
2023-02-11T00:25:38.000Z,3848.0
2023-02-11T00:26:39.000Z,3825.0
2023-02-11T00:27:38.000Z,3740.0
2023-02-11T00:28:38.000Z,3702.0
2023-02-11T00:29:39.000Z,3698.0
2023-02-11T00:30:38.000Z,3900.0
2023-02-11T00:31:39.000Z,3909.0
2023-02-11T00:32:39.000Z,3992.0
2023-02-11T00:33:38.000Z,3932.0
2023-02-11T00:34:39.000Z,3894.0
2023-02-11T00:35:38.000Z,4110.0
2023-02-11T00:36:39.000Z,4033.0
2023-02-11T00:37:39.000Z,3948.0
2023-02-11T00:38:38.000Z,3805.0
2023-02-11T00:39:39.000Z,3892.0
2023-02-11T00:40:38.000Z,3900.0
2023-02-11T00:41:39.000Z,3883.0
2023-02-11T00:42:39.000Z,4040.0
2023-02-11T00:43:38.000Z,4096.0
2023-02-11T00:44:39.000Z,4057.0
2023-02-11T00:45:39.000Z,4256.0
2023-02-11T00:46:38.000Z,4095.0
2023-02-11T00:47:39.000Z,3990.0
2023-02-11T00:48:38.000Z,3955.0
2023-02-11T00:49:39.000Z,3981.0
2023-02-11T00:50:39.000Z,4035.0
2023-02-11T00:51:38.000Z,4002.0
2023-02-11T00:52:39.000Z,4075.0
2023-02-11T00:53:38.000Z,4039.0
2023-02-11T00:54:38.000Z,4132.0
2023-02-11T00:55:39.000Z,4277.0
2023-02-11T00:56:38.000Z,4223.0
2023-02-11T00:57:39.000Z,4262.0
2023-02-11T00:58:39.000Z,4177.0
2023-02-11T00:59:38.000Z,4249.0
2023-02-11T01:00:39.000Z,4030.0
2023-02-11T01:01:38.000Z,3927.0
2023-02-11T01:02:39.000Z,4081.0
2023-02-11T01:03:39.000Z,4030.0
2023-02-11T01:04:38.000Z,4009.0
2023-02-11T01:05:39.000Z,3894.0
2023-02-11T01:06:39.000Z,3953.0
2023-02-11T01:07:38.000Z,3826.0
2023-02-11T01:08:39.000Z,3966.0
2023-02-11T01:09:39.000Z,3937.0
2023-02-11T01:10:38.000Z,4018.0
2023-02-11T01:11:39.000Z,3971.0
2023-02-11T01:12:38.000Z,3964.0
2023-02-11T01:13:39.000Z,3832.0
2023-02-11T01:14:39.000Z,3924.0
2023-02-11T01:15:38.000Z,4019.0
2023-02-11T01:16:39.000Z,4028.0
2023-02-11T01:17:39.000Z,3975.0
2023-02-11T01:18:38.000Z,3914.0
2023-02-11T01:19:39.000Z,3944.0
2023-02-11T01:20:38.000Z,3902.0
2023-02-11T01:21:39.000Z,3945.0
2023-02-11T01:22:39.000Z,3862.0
2023-02-11T01:23:38.000Z,3861.0
2023-02-11T01:24:39.000Z,3921.0
2023-02-11T01:25:38.000Z,3900.0
2023-02-11T01:26:39.000Z,3872.0
2023-02-11T01:27:39.000Z,4028.0
2023-02-11T01:28:38.000Z,4047.0
2023-02-11T01:29:39.000Z,3858.0
2023-02-11T01:30:38.000Z,3869.0
2023-02-11T01:31:38.000Z,3918.0
2023-02-11T01:32:39.000Z,3973.0
2023-02-11T01:33:38.000Z,4131.0
2023-02-11T01:34:39.000Z,4112.0
2023-02-11T01:35:39.000Z,4009.0
2023-02-11T01:36:38.000Z,4113.0
2023-02-11T01:37:39.000Z,4110.0
2023-02-11T01:38:38.000Z,4238.0
2023-02-11T01:39:39.000Z,4144.0
2023-02-11T01:40:39.000Z,4210.0
2023-02-11T01:41:38.000Z,4176.0
2023-02-11T01:42:39.000Z,3920.0
2023-02-11T01:43:39.000Z,3868.0
2023-02-11T01:44:38.000Z,3894.0
2023-02-11T01:45:39.000Z,3882.0
2023-02-11T01:46:38.000Z,3972.0
2023-02-11T01:47:39.000Z,3938.0
2023-02-11T01:48:39.000Z,3994.0
2023-02-11T01:49:38.000Z,3699.0
2023-02-11T01:50:39.000Z,3588.0
2023-02-11T01:51:38.000Z,3520.0
2023-02-11T01:52:39.000Z,3637.0
2023-02-11T01:53:39.000Z,3568.0
2023-02-11T01:54:38.000Z,3635.0
2023-02-11T01:55:39.000Z,3642.0
2023-02-11T01:56:39.000Z,3782.0
2023-02-11T01:57:38.000Z,3880.0
2023-02-11T01:58:39.000Z,3626.0
2023-02-11T01:59:38.000Z,3579.0
2023-02-11T02:00:39.000Z,3546.0
2023-02-11T02:01:39.000Z,3588.0
2023-02-11T02:02:38.000Z,3442.0
2023-02-11T02:03:39.000Z,3381.0
2023-02-11T02:04:38.000Z,3367.0
2023-02-11T02:05:39.000Z,3452.0
2023-02-11T02:06:39.000Z,3416.0
2023-02-11T02:07:38.000Z,3407.0
2023-02-11T02:08:38.000Z,3420.0
2023-02-11T02:09:39.000Z,3524.0
2023-02-11T02:10:38.000Z,3537.0
2023-02-11T02:11:39.000Z,3558.0
2023-02-11T02:12:39.000Z,3545.0
2023-02-11T02:13:38.000Z,3662.0
2023-02-11T02:14:39.000Z,3450.0
2023-02-11T02:15:38.000Z,3595.0
2023-02-11T02:16:39.000Z,3515.0
2023-02-11T02:17:39.000Z,3311.0
2023-02-11T02:18:38.000Z,3367.0
2023-02-11T02:19:39.000Z,3432.0
2023-02-11T02:20:39.000Z,3378.0
2023-02-11T02:21:38.000Z,3375.0
2023-02-11T02:22:39.000Z,3395.0
2023-02-11T02:23:38.000Z,3387.0
2023-02-11T02:24:39.000Z,3440.0
2023-02-11T02:25:39.000Z,3530.0
2023-02-11T02:26:38.000Z,3680.0
2023-02-11T02:27:39.000Z,3715.0
2023-02-11T02:28:38.000Z,3732.0
2023-02-11T02:29:38.000Z,3699.0
2023-02-11T02:30:39.000Z,3596.0
2023-02-11T02:31:38.000Z,3709.0
2023-02-11T02:32:39.000Z,3724.0
2023-02-11T02:33:39.000Z,3652.0
2023-02-11T02:34:38.000Z,3651.0
2023-02-11T02:35:39.000Z,3499.0
2023-02-11T02:36:38.000Z,3536.0
2023-02-11T02:37:39.000Z,3438.0
2023-02-11T02:38:39.000Z,3561.0
2023-02-11T02:39:38.000Z,3602.0
2023-02-11T02:40:39.000Z,3519.0
2023-02-11T02:41:38.000Z,3758.0
2023-02-11T02:42:39.000Z,3851.0
2023-02-11T02:43:39.000Z,3814.0
2023-02-11T02:44:38.000Z,3731.0
2023-02-11T02:45:39.000Z,3647.0
2023-02-11T02:46:39.000Z,3647.0
2023-02-11T02:47:38.000Z,3681.0
2023-02-11T02:48:39.000Z,3448.0
2023-02-11T02:49:38.000Z,3344.0
2023-02-11T02:50:39.000Z,3448.0
2023-02-11T02:51:39.000Z,3653.0
2023-02-11T02:52:38.000Z,3487.0
2023-02-11T02:53:39.000Z,3524.0
2023-02-11T02:54:38.000Z,3587.0
2023-02-11T02:55:38.000Z,3694.0
2023-02-11T02:56:39.000Z,3715.0
2023-02-11T02:57:38.000Z,3627.0
2023-02-11T02:58:39.000Z,3552.0
2023-02-11T02:59:39.000Z,3548.0
2023-02-11T03:00:38.000Z,3557.0
2023-02-11T03:01:39.000Z,3509.0
2023-02-11T03:02:38.000Z,3560.0
2023-02-11T03:03:39.000Z,3553.0
2023-02-11T03:04:39.000Z,3679.0
2023-02-11T03:05:38.000Z,3740.0
2023-02-11T03:06:39.000Z,3706.0
2023-02-11T03:07:39.000Z,3586.0
2023-02-11T03:08:38.000Z,3588.0
2023-02-11T03:09:39.000Z,3613.0
2023-02-11T03:10:38.000Z,3655.0
2023-02-11T03:11:38.000Z,3662.0
2023-02-11T03:12:39.000Z,3771.0
2023-02-11T03:13:38.000Z,3687.0
2023-02-11T03:14:39.000Z,3666.0
2023-02-11T03:15:39.000Z,3737.0
2023-02-11T03:16:38.000Z,3722.0
2023-02-11T03:17:39.000Z,3721.0
2023-02-11T03:18:38.000Z,3708.0
2023-02-11T03:19:38.000Z,3631.0
2023-02-11T03:20:39.000Z,3587.0
2023-02-11T03:21:38.000Z,3748.0
2023-02-11T03:22:39.000Z,3789.0
2023-02-11T03:23:39.000Z,3797.0
2023-02-11T03:24:38.000Z,3955.0
2023-02-11T03:25:39.000Z,3829.0
2023-02-11T03:26:38.000Z,3693.0
2023-02-11T03:27:39.000Z,3678.0
2023-02-11T03:28:39.000Z,3704.0
2023-02-11T03:29:38.000Z,3732.0
2023-02-11T03:30:39.000Z,3854.0
2023-02-11T03:31:38.000Z,3945.0
2023-02-11T03:32:38.000Z,3831.0
2023-02-11T03:33:39.000Z,3852.0
2023-02-11T03:34:38.000Z,3915.0
2023-02-11T03:35:39.000Z,4095.0
2023-02-11T03:36:39.000Z,4124.0
2023-02-11T03:37:38.000Z,4234.0
2023-02-11T03:38:39.000Z,4070.0
2023-02-11T03:39:38.000Z,4157.0
2023-02-11T03:40:39.000Z,4173.0
2023-02-11T03:41:39.000Z,4386.0
2023-02-11T03:42:38.000Z,4451.0
2023-02-11T03:43:39.000Z,4360.0
2023-02-11T03:44:39.000Z,4276.0
2023-02-11T03:45:38.000Z,4252.0
2023-02-11T03:46:39.000Z,4194.0
2023-02-11T03:47:38.000Z,4183.0
2023-02-11T03:48:39.000Z,4075.0
2023-02-11T03:49:39.000Z,3937.0
2023-02-11T03:50:38.000Z,3960.0
2023-02-11T03:51:39.000Z,4111.0
2023-02-11T03:52:38.000Z,4129.0
2023-02-11T03:53:39.000Z,4343.0
2023-02-11T03:54:39.000Z,4736.0
2023-02-11T03:55:38.000Z,4839.0
2023-02-11T03:56:39.000Z,4880.0
2023-02-11T03:57:38.000Z,4796.0
2023-02-11T03:58:38.000Z,4932.0
2023-02-11T03:59:39.000Z,4819.0
2023-02-11T04:00:38.000Z,4735.0
2023-02-11T04:01:39.000Z,4669.0
2023-02-11T04:02:39.000Z,4692.0
2023-02-11T04:03:38.000Z,4714.0
2023-02-11T04:04:39.000Z,4674.0
2023-02-11T04:05:38.000Z,4913.0
2023-02-11T04:06:39.000Z,4941.0
2023-02-11T04:07:39.000Z,5034.0
2023-02-11T04:08:38.000Z,5361.0
2023-02-11T04:09:39.000Z,5314.0
2023-02-11T04:10:39.000Z,5145.0
2023-02-11T04:11:38.000Z,5234.0
2023-02-11T04:12:39.000Z,5262.0
2023-02-11T04:13:38.000Z,5096.0
2023-02-11T04:14:39.000Z,5084.0
2023-02-11T04:15:39.000Z,4898.0
2023-02-11T04:16:38.000Z,4869.0
2023-02-11T04:17:39.000Z,5005.0
2023-02-11T04:18:38.000Z,4983.0
2023-02-11T04:19:38.000Z,4742.0
2023-02-11T04:20:39.000Z,4985.0
2023-02-11T04:21:38.000Z,4831.0
2023-02-11T04:22:39.000Z,4890.0
2023-02-11T04:23:39.000Z,4885.0
2023-02-11T04:24:38.000Z,5326.0
2023-02-11T04:25:39.000Z,5257.0
2023-02-11T04:26:38.000Z,5205.0
2023-02-11T04:27:39.000Z,5209.0
2023-02-11T04:28:39.000Z,5274.0
2023-02-11T04:29:38.000Z,5522.0
2023-02-11T04:30:39.000Z,5786.0
2023-02-11T04:31:39.000Z,5658.0
2023-02-11T04:32:38.000Z,5490.0
2023-02-11T04:33:39.000Z,5318.0
2023-02-11T04:34:38.000Z,5223.0
2023-02-11T04:35:39.000Z,5393.0
2023-02-11T04:36:39.000Z,5533.0
2023-02-11T04:37:38.000Z,5350.0
2023-02-11T04:38:39.000Z,5618.0
2023-02-11T04:39:38.000Z,5642.0
2023-02-11T04:40:39.000Z,5347.0
2023-02-11T04:41:39.000Z,5364.0
2023-02-11T04:42:38.000Z,5190.0
2023-02-11T04:43:39.000Z,5462.0
2023-02-11T04:44:38.000Z,5820.0
2023-02-11T04:45:38.000Z,5783.0
2023-02-11T04:46:39.000Z,5895.0
2023-02-11T04:47:38.000Z,5720.0
2023-02-11T04:48:39.000Z,5824.0
2023-02-11T04:49:39.000Z,6092.0
2023-02-11T04:50:38.000Z,6323.0
2023-02-11T04:51:39.000Z,6201.0
2023-02-11T04:52:38.000Z,5967.0
2023-02-11T04:53:39.000Z,5940.0
2023-02-11T04:54:39.000Z,5899.0
2023-02-11T04:55:38.000Z,5945.0
2023-02-11T04:56:39.000Z,6041.0
2023-02-11T04:57:39.000Z,6037.0
2023-02-11T04:58:38.000Z,5851.0
2023-02-11T04:59:39.000Z,6052.0
2023-02-11T05:00:38.000Z,5921.0
2023-02-11T05:01:39.000Z,5922.0
2023-02-11T05:02:39.000Z,5822.0
2023-02-11T05:03:38.000Z,5818.0
2023-02-11T05:04:39.000Z,5871.0
2023-02-11T05:05:38.000Z,5661.0
2023-02-11T05:06:38.000Z,5611.0
2023-02-11T05:07:39.000Z,5769.0
2023-02-11T05:08:38.000Z,6012.0
2023-02-11T05:09:38.000Z,5982.0
2023-02-11T05:10:39.000Z,5979.0
2023-02-11T05:11:38.000Z,6147.0
2023-02-11T05:12:39.000Z,6222.0
2023-02-11T05:13:39.000Z,6360.0
2023-02-11T05:14:38.000Z,6402.0
2023-02-11T05:15:39.000Z,6471.0
2023-02-11T05:16:38.000Z,6373.0
2023-02-11T05:17:38.000Z,6583.0
2023-02-11T05:18:39.000Z,6558.0
2023-02-11T05:19:38.000Z,6811.0
2023-02-11T05:20:39.000Z,6606.0
2023-02-11T05:21:39.000Z,6561.0
2023-02-11T05:22:38.000Z,6545.0
2023-02-11T05:23:39.000Z,6600.0
2023-02-11T05:24:38.000Z,6533.0
2023-02-11T05:25:39.000Z,6491.0
2023-02-11T05:26:39.000Z,6540.0
2023-02-11T05:27:38.000Z,6445.0
2023-02-11T05:28:39.000Z,6107.0
2023-02-11T05:29:38.000Z,5853.0
2023-02-11T05:30:38.000Z,6268.0
2023-02-11T05:31:39.000Z,6104.0
2023-02-11T05:32:38.000Z,5679.0
2023-02-11T05:33:39.000Z,5700.0
2023-02-11T05:34:39.000Z,5593.0
2023-02-11T05:35:38.000Z,5433.0
2023-02-11T05:36:39.000Z,5170.0
2023-02-11T05:37:38.000Z,5511.0
2023-02-11T05:38:39.000Z,5721.0
2023-02-11T05:39:39.000Z,5603.0
2023-02-11T05:40:38.000Z,5547.0
2023-02-11T05:41:39.000Z,5628.0
2023-02-11T05:42:39.000Z,5601.0
2023-02-11T05:43:38.000Z,5573.0
2023-02-11T05:44:39.000Z,5529.0
2023-02-11T05:45:38.000Z,5827.0
2023-02-11T05:46:39.000Z,5991.0
2023-02-11T05:47:39.000Z,5953.0
2023-02-11T05:48:38.000Z,5938.0
2023-02-11T05:49:39.000Z,6005.0
2023-02-11T05:50:38.000Z,6147.0
2023-02-11T05:51:39.000Z,6260.0
2023-02-11T05:52:39.000Z,6266.0
2023-02-11T05:53:38.000Z,6314.0
2023-02-11T05:54:39.000Z,6383.0
2023-02-11T05:55:38.000Z,6243.0
2023-02-11T05:56:38.000Z,6123.0
2023-02-11T05:57:39.000Z,5782.0
2023-02-11T05:58:38.000Z,5538.0
2023-02-11T05:59:39.000Z,5610.0
2023-02-11T06:00:39.000Z,5820.0
2023-02-11T06:01:38.000Z,5570.0
2023-02-11T06:02:39.000Z,5891.0
2023-02-11T06:03:38.000Z,5898.0
2023-02-11T06:04:39.000Z,6121.0
2023-02-11T06:05:39.000Z,6581.0
2023-02-11T06:06:38.000Z,5952.0
2023-02-11T06:07:38.000Z,5971.0
2023-02-11T06:08:39.000Z,6063.0
2023-02-11T06:09:38.000Z,5990.0
2023-02-11T06:10:39.000Z,6000.0
2023-02-11T06:11:39.000Z,5628.0
2023-02-11T06:12:38.000Z,5702.0
2023-02-11T06:13:39.000Z,5491.0
2023-02-11T06:14:38.000Z,5453.0
2023-02-11T06:15:39.000Z,5801.0
2023-02-11T06:16:39.000Z,5754.0
2023-02-11T06:17:38.000Z,5729.0
2023-02-11T06:18:39.000Z,5496.0
2023-02-11T06:19:39.000Z,5663.0
2023-02-11T06:20:38.000Z,5703.0
2023-02-11T06:21:39.000Z,5452.0
2023-02-11T06:22:38.000Z,5534.0
2023-02-11T06:23:39.000Z,5668.0
2023-02-11T06:24:39.000Z,5858.0
2023-02-11T06:25:38.000Z,5605.0
2023-02-11T06:26:39.000Z,5616.0
2023-02-11T06:27:38.000Z,5611.0
2023-02-11T06:28:38.000Z,5880.0
2023-02-11T06:29:39.000Z,5458.0
2023-02-11T06:30:38.000Z,5278.0
2023-02-11T06:31:39.000Z,5116.0
2023-02-11T06:32:39.000Z,5113.0
2023-02-11T06:33:38.000Z,5318.0
2023-02-11T06:34:39.000Z,5116.0
2023-02-11T06:35:38.000Z,5174.0
2023-02-11T06:36:39.000Z,5373.0
2023-02-11T06:37:39.000Z,5274.0
2023-02-11T06:38:38.000Z,5416.0
2023-02-11T06:39:39.000Z,5208.0
2023-02-11T06:40:38.000Z,5066.0
2023-02-11T06:41:39.000Z,4906.0
2023-02-11T06:42:39.000Z,5087.0
2023-02-11T06:43:38.000Z,5168.0
2023-02-11T06:44:39.000Z,5038.0
2023-02-11T06:45:39.000Z,5087.0
2023-02-11T06:46:38.000Z,5184.0
2023-02-11T06:47:39.000Z,5248.0
2023-02-11T06:48:38.000Z,5109.0
2023-02-11T06:49:39.000Z,5096.0
2023-02-11T06:50:39.000Z,5158.0
2023-02-11T06:51:38.000Z,5242.0
2023-02-11T06:52:39.000Z,5286.0
2023-02-11T06:53:38.000Z,5203.0
2023-02-11T06:54:38.000Z,5036.0
2023-02-11T06:55:39.000Z,4948.0
2023-02-11T06:56:38.000Z,5100.0
2023-02-11T06:57:39.000Z,5122.0
2023-02-11T06:58:39.000Z,5058.0
2023-02-11T06:59:38.000Z,5197.0
2023-02-11T07:00:39.000Z,4966.0
2023-02-11T07:01:38.000Z,4969.0
2023-02-11T07:02:39.000Z,5262.0
2023-02-11T07:03:39.000Z,5274.0
2023-02-11T07:04:38.000Z,5466.0
2023-02-11T07:05:39.000Z,5527.0
2023-02-11T07:06:38.000Z,5563.0
2023-02-11T07:07:38.000Z,5660.0
2023-02-11T07:08:39.000Z,5551.0
2023-02-11T07:09:39.000Z,5397.0
2023-02-11T07:10:38.000Z,5318.0
2023-02-11T07:11:39.000Z,5587.0
2023-02-11T07:12:38.000Z,5770.0
2023-02-11T07:13:39.000Z,5654.0
2023-02-11T07:14:39.000Z,5428.0
2023-02-11T07:15:38.000Z,5364.0
2023-02-11T07:16:39.000Z,5108.0
2023-02-11T07:17:38.000Z,4773.0
2023-02-11T07:18:38.000Z,4744.0
2023-02-11T07:19:39.000Z,4914.0
2023-02-11T07:20:38.000Z,4966.0
2023-02-11T07:21:39.000Z,5008.0
2023-02-11T07:22:39.000Z,5011.0
2023-02-11T07:23:38.000Z,5342.0
2023-02-11T07:24:39.000Z,5333.0
2023-02-11T07:25:38.000Z,5368.0
2023-02-11T07:26:39.000Z,5153.0
2023-02-11T07:27:39.000Z,5214.0
2023-02-11T07:28:38.000Z,5524.0
2023-02-11T07:29:39.000Z,5445.0
2023-02-11T07:30:38.000Z,5223.0
2023-02-11T07:31:38.000Z,5534.0
2023-02-11T07:32:39.000Z,5321.0
2023-02-11T07:33:38.000Z,5339.0
2023-02-11T07:34:39.000Z,5348.0
2023-02-11T07:35:39.000Z,5344.0
2023-02-11T07:36:38.000Z,5252.0
2023-02-11T07:37:39.000Z,5224.0
2023-02-11T07:38:38.000Z,5354.0
2023-02-11T07:39:39.000Z,5496.0
2023-02-11T07:40:39.000Z,5223.0
2023-02-11T07:41:38.000Z,5183.0
2023-02-11T07:42:39.000Z,5178.0
2023-02-11T07:43:38.000Z,5254.0
2023-02-11T07:44:38.000Z,5103.0
2023-02-11T07:45:39.000Z,5274.0
2023-02-11T07:46:38.000Z,5306.0
2023-02-11T07:47:39.000Z,5256.0
2023-02-11T07:48:39.000Z,5194.0
2023-02-11T07:49:38.000Z,5249.0
2023-02-11T07:50:39.000Z,5163.0
2023-02-11T07:51:38.000Z,5256.0
2023-02-11T07:52:39.000Z,5182.0
2023-02-11T07:53:39.000Z,5148.0
2023-02-11T07:54:38.000Z,4985.0
2023-02-11T07:55:39.000Z,5285.0
2023-02-11T07:56:38.000Z,5220.0
2023-02-11T07:57:38.000Z,5308.0
2023-02-11T07:58:39.000Z,5272.0
2023-02-11T07:59:38.000Z,5377.0
2023-02-11T08:00:39.000Z,5460.0
2023-02-11T08:01:39.000Z,5258.0
2023-02-11T08:02:38.000Z,5204.0
2023-02-11T08:03:39.000Z,4945.0
2023-02-11T08:04:38.000Z,4943.0
2023-02-11T08:05:39.000Z,5052.0
2023-02-11T08:06:39.000Z,5185.0
2023-02-11T08:07:38.000Z,5047.0
2023-02-11T08:08:39.000Z,4997.0
2023-02-11T08:09:39.000Z,4872.0
2023-02-11T08:10:38.000Z,4768.0
2023-02-11T08:11:39.000Z,4766.0
2023-02-11T08:12:38.000Z,4953.0
2023-02-11T08:13:38.000Z,4913.0
2023-02-11T08:14:39.000Z,4850.0
2023-02-11T08:15:38.000Z,4977.0
2023-02-11T08:16:39.000Z,4804.0
2023-02-11T08:17:39.000Z,4627.0
2023-02-11T08:18:38.000Z,4688.0
2023-02-11T08:19:39.000Z,4681.0
2023-02-11T08:20:38.000Z,4554.0
2023-02-11T08:21:38.000Z,4481.0
2023-02-11T08:22:39.000Z,4427.0
2023-02-11T08:23:38.000Z,4590.0
2023-02-11T08:24:39.000Z,4547.0
2023-02-11T08:25:39.000Z,4889.0
2023-02-11T08:26:38.000Z,4959.0
2023-02-11T08:27:39.000Z,4834.0
2023-02-11T08:28:38.000Z,4647.0
2023-02-11T08:29:39.000Z,4826.0
2023-02-11T08:30:39.000Z,5079.0
2023-02-11T08:31:38.000Z,5043.0
2023-02-11T08:32:39.000Z,5299.0
2023-02-11T08:33:38.000Z,5235.0
2023-02-11T08:34:38.000Z,5164.0
2023-02-11T08:35:39.000Z,5018.0
2023-02-11T08:36:38.000Z,4757.0
2023-02-11T08:37:39.000Z,4909.0
2023-02-11T08:38:39.000Z,4676.0
2023-02-11T08:39:38.000Z,4706.0
2023-02-11T08:40:39.000Z,4752.0
2023-02-11T08:41:38.000Z,4767.0
2023-02-11T08:42:39.000Z,4834.0
2023-02-11T08:43:39.000Z,4950.0
2023-02-11T08:44:38.000Z,4818.0
2023-02-11T08:45:39.000Z,4949.0
2023-02-11T08:46:39.000Z,4780.0
2023-02-11T08:47:38.000Z,4875.0
2023-02-11T08:48:39.000Z,4876.0
2023-02-11T08:49:38.000Z,4878.0
2023-02-11T08:50:39.000Z,4997.0
2023-02-11T08:51:39.000Z,5024.0
2023-02-11T08:52:38.000Z,4985.0
2023-02-11T08:53:39.000Z,4881.0
2023-02-11T08:54:38.000Z,4843.0
2023-02-11T08:55:38.000Z,4779.0
2023-02-11T08:56:39.000Z,4700.0
2023-02-11T08:57:38.000Z,4571.0
2023-02-11T08:58:39.000Z,4641.0
2023-02-11T08:59:38.000Z,4488.0
2023-02-11T09:00:38.000Z,4662.0
2023-02-11T09:01:39.000Z,4745.0
2023-02-11T09:02:38.000Z,4807.0
2023-02-11T09:03:39.000Z,4741.0
2023-02-11T09:04:39.000Z,4585.0
2023-02-11T09:05:38.000Z,4618.0
2023-02-11T09:06:39.000Z,4437.0
2023-02-11T09:07:39.000Z,4331.0
2023-02-11T09:08:38.000Z,4177.0
2023-02-11T09:09:39.000Z,4242.0
2023-02-11T09:10:38.000Z,4260.0
2023-02-11T09:11:39.000Z,4294.0
2023-02-11T09:12:39.000Z,4365.0
2023-02-11T09:13:38.000Z,4320.0
2023-02-11T09:14:39.000Z,4349.0
2023-02-11T09:15:38.000Z,4258.0
2023-02-11T09:16:38.000Z,4292.0
2023-02-11T09:17:39.000Z,4185.0
2023-02-11T09:18:38.000Z,4181.0
2023-02-11T09:19:39.000Z,4044.0
2023-02-11T09:20:38.000Z,4239.0
2023-02-11T09:21:38.000Z,4233.0
2023-02-11T09:22:39.000Z,4251.0
2023-02-11T09:23:38.000Z,4223.0
2023-02-11T09:24:39.000Z,4213.0
2023-02-11T09:25:39.000Z,3970.0
2023-02-11T09:26:38.000Z,4112.0
2023-02-11T09:27:39.000Z,4126.0
2023-02-11T09:28:38.000Z,4137.0
2023-02-11T09:29:39.000Z,4172.0
2023-02-11T09:30:39.000Z,4041.0
2023-02-11T09:31:38.000Z,3924.0
2023-02-11T09:32:39.000Z,4157.0
2023-02-11T09:33:39.000Z,4095.0
2023-02-11T09:34:38.000Z,3999.0
2023-02-11T09:35:39.000Z,3849.0
2023-02-11T09:36:38.000Z,3891.0
2023-02-11T09:37:39.000Z,3753.0
2023-02-11T09:38:39.000Z,3654.0
2023-02-11T09:39:38.000Z,3605.0
2023-02-11T09:40:39.000Z,3556.0
2023-02-11T09:41:38.000Z,3539.0
2023-02-11T09:42:38.000Z,3470.0
2023-02-11T09:43:39.000Z,3421.0
2023-02-11T09:44:38.000Z,3451.0
2023-02-11T09:45:39.000Z,3413.0
2023-02-11T09:46:39.000Z,3409.0
2023-02-11T09:47:38.000Z,3305.0
2023-02-11T09:48:39.000Z,3411.0
2023-02-11T09:49:38.000Z,3371.0
2023-02-11T09:50:39.000Z,3468.0
2023-02-11T09:51:39.000Z,3470.0
2023-02-11T09:52:38.000Z,3446.0
2023-02-11T09:53:39.000Z,3624.0
2023-02-11T09:54:38.000Z,3542.0
2023-02-11T09:55:38.000Z,3524.0
2023-02-11T09:56:39.000Z,3570.0
2023-02-11T09:57:38.000Z,3589.0
2023-02-11T09:58:39.000Z,3447.0
2023-02-11T09:59:39.000Z,3448.0
2023-02-11T10:00:38.000Z,3542.0
2023-02-11T10:01:39.000Z,3424.0
2023-02-11T10:02:38.000Z,3400.0
2023-02-11T10:03:39.000Z,3394.0
2023-02-11T10:04:39.000Z,3282.0
2023-02-11T10:05:38.000Z,3150.0
2023-02-11T10:06:39.000Z,3280.0
2023-02-11T10:07:39.000Z,3182.0
2023-02-11T10:08:38.000Z,3206.0
2023-02-11T10:09:39.000Z,3248.0
2023-02-11T10:10:38.000Z,3230.0
2023-02-11T10:11:39.000Z,3248.0
2023-02-11T10:12:39.000Z,3363.0
2023-02-11T10:13:38.000Z,3335.0
2023-02-11T10:14:39.000Z,3298.0
2023-02-11T10:15:38.000Z,3356.0
2023-02-11T10:16:38.000Z,3271.0
2023-02-11T10:17:39.000Z,3473.0
2023-02-11T10:18:38.000Z,3490.0
2023-02-11T10:19:39.000Z,3572.0
2023-02-11T10:20:39.000Z,3618.0
2023-02-11T10:21:38.000Z,3654.0
2023-02-11T10:22:39.000Z,3733.0
2023-02-11T10:23:38.000Z,3834.0
2023-02-11T10:24:39.000Z,3744.0
2023-02-11T10:25:39.000Z,3737.0
2023-02-11T10:26:38.000Z,3757.0
2023-02-11T10:27:39.000Z,3789.0
2023-02-11T10:28:38.000Z,3699.0
2023-02-11T10:29:38.000Z,3823.0
2023-02-11T10:30:39.000Z,3835.0
2023-02-11T10:31:38.000Z,3782.0
2023-02-11T10:32:39.000Z,3714.0
2023-02-11T10:33:39.000Z,3701.0
2023-02-11T10:34:38.000Z,3725.0
2023-02-11T10:35:39.000Z,3731.0
2023-02-11T10:36:38.000Z,3767.0
2023-02-11T10:37:39.000Z,3823.0
2023-02-11T10:38:39.000Z,3878.0
2023-02-11T10:39:38.000Z,3790.0
2023-02-11T10:40:39.000Z,3870.0
2023-02-11T10:41:38.000Z,3829.0
2023-02-11T10:42:38.000Z,3822.0
2023-02-11T10:43:39.000Z,4083.0
2023-02-11T10:44:38.000Z,4003.0
2023-02-11T10:45:39.000Z,4051.0
2023-02-11T10:46:39.000Z,4162.0
2023-02-11T10:47:38.000Z,4063.0
2023-02-11T10:48:39.000Z,4178.0
2023-02-11T10:49:38.000Z,4222.0
2023-02-11T10:50:39.000Z,4224.0
2023-02-11T10:51:39.000Z,3976.0
2023-02-11T10:52:38.000Z,3859.0
2023-02-11T10:53:39.000Z,3715.0
2023-02-11T10:54:38.000Z,3735.0
2023-02-11T10:55:38.000Z,3774.0
2023-02-11T10:56:39.000Z,3799.0
2023-02-11T10:57:38.000Z,3964.0
2023-02-11T10:58:39.000Z,3995.0
2023-02-11T10:59:39.000Z,4020.0
2023-02-11T11:00:38.000Z,4062.0
2023-02-11T11:01:39.000Z,4037.0
2023-02-11T11:02:38.000Z,4026.0
2023-02-11T11:03:39.000Z,3922.0
2023-02-11T11:04:39.000Z,3878.0
2023-02-11T11:05:38.000Z,3784.0
2023-02-11T11:06:39.000Z,3696.0
2023-02-11T11:07:39.000Z,3700.0
2023-02-11T11:08:38.000Z,3794.0
2023-02-11T11:09:39.000Z,3697.0
2023-02-11T11:10:39.000Z,3755.0
2023-02-11T11:11:38.000Z,3767.0
2023-02-11T11:12:39.000Z,3723.0
2023-02-11T11:13:38.000Z,3771.0
2023-02-11T11:14:39.000Z,3919.0
2023-02-11T11:15:39.000Z,3925.0
2023-02-11T11:16:38.000Z,4007.0
2023-02-11T11:17:39.000Z,4139.0
2023-02-11T11:18:38.000Z,4047.0
2023-02-11T11:19:38.000Z,4094.0
2023-02-11T11:20:39.000Z,4129.0
2023-02-11T11:21:38.000Z,4064.0
2023-02-11T11:22:39.000Z,4018.0
2023-02-11T11:23:39.000Z,3903.0
2023-02-11T11:24:38.000Z,4088.0
2023-02-11T11:25:39.000Z,4145.0
2023-02-11T11:26:38.000Z,4048.0
2023-02-11T11:27:38.000Z,4070.0
2023-02-11T11:28:39.000Z,4363.0
2023-02-11T11:29:38.000Z,4365.0
2023-02-11T11:30:39.000Z,4375.0
2023-02-11T11:31:38.000Z,4402.0
2023-02-11T11:32:38.000Z,4421.0
2023-02-11T11:33:39.000Z,4287.0
2023-02-11T11:34:38.000Z,4052.0
2023-02-11T11:35:39.000Z,4036.0
2023-02-11T11:36:39.000Z,4037.0
2023-02-11T11:37:38.000Z,4071.0
2023-02-11T11:38:39.000Z,4237.0
2023-02-11T11:39:38.000Z,4415.0
2023-02-11T11:40:39.000Z,4616.0
2023-02-11T11:41:39.000Z,4716.0
2023-02-11T11:42:38.000Z,4562.0
2023-02-11T11:43:39.000Z,4659.0
2023-02-11T11:44:38.000Z,4709.0
2023-02-11T11:45:38.000Z,4827.0
2023-02-11T11:46:39.000Z,4952.0
2023-02-11T11:47:38.000Z,5090.0
2023-02-11T11:48:39.000Z,5283.0
2023-02-11T11:49:39.000Z,5231.0
2023-02-11T11:50:38.000Z,5080.0
2023-02-11T11:51:39.000Z,5267.0
2023-02-11T11:52:38.000Z,5363.0
2023-02-11T11:53:38.000Z,5298.0
2023-02-11T11:54:39.000Z,5509.0
2023-02-11T11:55:38.000Z,5480.0
2023-02-11T11:56:39.000Z,5533.0
2023-02-11T11:57:38.000Z,5444.0
2023-02-11T11:58:38.000Z,5311.0
2023-02-11T11:59:39.000Z,5473.0
2023-02-11T12:00:38.000Z,5545.0
2023-02-11T12:01:39.000Z,5326.0
2023-02-11T12:02:39.000Z,5337.0
2023-02-11T12:03:38.000Z,5482.0
2023-02-11T12:04:39.000Z,5388.0
2023-02-11T12:05:38.000Z,5531.0
2023-02-11T12:06:38.000Z,5600.0
2023-02-11T12:07:39.000Z,5642.0
2023-02-11T12:08:38.000Z,5458.0
2023-02-11T12:09:38.000Z,5670.0
2023-02-11T12:10:39.000Z,5696.0
2023-02-11T12:11:38.000Z,5900.0
2023-02-11T12:12:39.000Z,6127.0
2023-02-11T12:13:39.000Z,6387.0
2023-02-11T12:14:38.000Z,6452.0
2023-02-11T12:15:39.000Z,6800.0
2023-02-11T12:16:38.000Z,6315.0
2023-02-11T12:17:38.000Z,6326.0
2023-02-11T12:18:39.000Z,6411.0
2023-02-11T12:19:38.000Z,6257.0
2023-02-11T12:20:39.000Z,6019.0
2023-02-11T12:21:38.000Z,6079.0
2023-02-11T12:22:38.000Z,6195.0
2023-02-11T12:23:39.000Z,6256.0
2023-02-11T12:24:38.000Z,6015.0
2023-02-11T12:25:39.000Z,6130.0
2023-02-11T12:26:39.000Z,6216.0
2023-02-11T12:27:38.000Z,6247.0
2023-02-11T12:28:39.000Z,5977.0